createdAt,value
2019-06-07T00:01:08.422Z,3.83
2019-06-07T00:03:37.650Z,3.90
2019-06-07T00:06:07.809Z,3.67
2019-06-07T00:08:37.431Z,4.40
2019-06-07T00:11:07.768Z,3.80
2019-06-07T00:13:37.389Z,4.10
2019-06-07T00:16:06.386Z,4.20
2019-06-07T00:18:35.402Z,4.67
2019-06-07T00:21:04.439Z,3.70
2019-06-07T00:23:33.437Z,4.63
2019-06-07T00:26:02.450Z,4.20
2019-06-07T00:28:31.883Z,4.10
2019-06-07T00:31:01.625Z,4.27
2019-06-07T00:33:31.338Z,4.00
2019-06-07T00:36:00.343Z,4.27
2019-06-07T00:38:29.745Z,4.27
2019-06-07T00:40:59.145Z,4.37
2019-06-07T00:43:28.741Z,4.37
2019-06-07T00:45:57.876Z,4.43
2019-06-07T00:48:32.365Z,4.67
2019-06-07T00:50:58.388Z,3.90
2019-06-07T00:53:32.153Z,5.03
2019-06-07T00:55:58.727Z,4.60
2019-06-07T00:58:29.485Z,4.70
2019-06-07T01:00:58.640Z,5.00
2019-06-07T01:03:27.978Z,4.17
2019-06-07T01:05:57.253Z,4.80
2019-06-07T01:08:29.909Z,4.13
2019-06-07T01:10:57.021Z,5.10
2019-06-07T01:13:27.109Z,4.67
2019-06-07T01:15:56.253Z,5.37
2019-06-07T01:18:37.329Z,4.53
2019-06-07T01:20:56.686Z,4.90
2019-06-07T01:24:01.417Z,4.97
2019-06-07T01:25:56.788Z,4.97
2019-06-07T01:28:27.193Z,5.03
2019-06-07T01:30:56.553Z,5.80
2019-06-07T01:33:46.470Z,4.80
2019-06-07T01:35:56.563Z,5.27
2019-06-07T01:38:26.884Z,5.30
2019-06-07T01:40:55.962Z,5.33
2019-06-07T01:43:28.411Z,5.30
2019-06-07T01:45:55.981Z,5.00
2019-06-07T01:48:27.766Z,4.90
2019-06-07T01:50:55.756Z,4.87
2019-06-07T01:53:26.382Z,5.03
2019-06-07T01:55:55.515Z,5.27
2019-06-07T01:58:27.375Z,4.97
2019-06-07T02:00:55.454Z,5.00
2019-06-07T02:03:26.917Z,4.80
2019-06-07T02:05:55.240Z,4.77
2019-06-07T02:08:27.358Z,4.83
2019-06-07T02:10:55.725Z,4.70
2019-06-07T02:13:28.683Z,4.47
2019-06-07T02:15:55.816Z,4.73
2019-06-07T02:18:27.750Z,5.03
2019-06-07T02:20:55.898Z,4.40
2019-06-07T02:23:30.350Z,4.90
2019-06-07T02:25:55.709Z,4.73
2019-06-07T02:28:42.247Z,4.53
2019-06-07T02:31:00.153Z,5.00
2019-06-07T02:33:31.155Z,5.43
2019-06-07T02:35:57.270Z,5.30
2019-06-07T02:38:29.698Z,4.93
2019-06-07T02:40:57.684Z,5.27
2019-06-07T02:43:28.231Z,5.50
2019-06-07T02:46:21.210Z,5.27
2019-06-07T02:48:35.372Z,5.40
2019-06-07T02:50:59.982Z,5.60
2019-06-07T02:53:30.819Z,4.87
2019-06-07T02:56:35.111Z,5.53
2019-06-07T02:58:35.357Z,5.70
2019-06-07T03:01:08.636Z,5.77
2019-06-07T03:03:33.633Z,4.93
2019-06-07T03:06:04.091Z,4.07
2019-06-07T03:08:36.581Z,4.97
2019-06-07T03:11:05.073Z,4.90
2019-06-07T03:13:37.427Z,4.50
2019-06-07T03:16:08.591Z,4.97
2019-06-07T03:19:09.547Z,5.17
2019-06-07T03:21:41.680Z,5.00
2019-06-07T03:24:11.299Z,4.63
2019-06-07T03:29:12.983Z,5.20
2019-06-07T03:31:47.788Z,4.77
2019-06-07T03:34:12.935Z,4.93
2019-06-07T03:36:42.280Z,4.63
2019-06-07T03:39:11.292Z,4.50
2019-06-07T03:41:50.342Z,4.93
2019-06-07T03:44:11.081Z,5.00
2019-06-07T03:46:41.573Z,4.73
2019-06-07T03:49:10.941Z,4.90
2019-06-07T03:51:41.237Z,4.50
2019-06-07T03:54:10.168Z,4.40
2019-06-07T03:56:41.006Z,4.83
2019-06-07T03:59:09.939Z,4.63
2019-06-07T04:01:41.152Z,4.53
2019-06-07T04:04:10.305Z,4.13
2019-06-07T04:06:42.164Z,4.60
2019-06-07T04:09:10.109Z,5.13
2019-06-07T04:11:40.802Z,4.50
2019-06-07T04:14:09.967Z,4.90
2019-06-07T04:16:44.145Z,4.03
2019-06-07T04:19:10.729Z,4.57
2019-06-07T04:21:42.878Z,4.43
2019-06-07T04:24:10.507Z,4.40
2019-06-07T04:26:43.544Z,4.30
2019-06-07T04:29:33.039Z,4.33
2019-06-07T04:31:43.302Z,4.63
2019-06-07T04:34:12.426Z,4.03
2019-06-07T04:36:56.293Z,4.73
2019-06-07T04:39:12.992Z,4.60
2019-06-07T04:41:42.295Z,4.50
2019-06-07T04:44:12.628Z,4.60
2019-06-07T04:46:42.731Z,4.40
2019-06-07T04:49:13.527Z,4.70
2019-06-07T04:51:43.791Z,4.47
2019-06-07T04:54:13.237Z,4.50
2019-06-07T04:56:44.522Z,4.50
2019-06-07T04:59:13.334Z,4.03
2019-06-07T05:01:42.898Z,4.40
2019-06-07T05:04:11.984Z,4.40
2019-06-07T05:06:42.646Z,4.63
2019-06-07T05:09:12.189Z,4.40
2019-06-07T05:11:44.992Z,4.10
2019-06-07T05:14:13.873Z,5.00
2019-06-07T05:16:44.575Z,4.13
2019-06-07T05:19:14.227Z,4.60
2019-06-07T05:22:01.410Z,4.33
2019-06-07T05:24:14.669Z,4.50
2019-06-07T05:26:43.753Z,4.03
2019-06-07T05:29:12.800Z,4.20
2019-06-07T05:31:45.161Z,4.40
2019-06-07T05:34:13.033Z,4.30
2019-06-07T05:36:44.892Z,4.57
2019-06-07T05:39:12.886Z,4.80
2019-06-07T05:41:44.440Z,4.70
2019-06-07T05:44:15.201Z,4.70
2019-06-07T05:46:47.148Z,4.77
2019-06-07T05:49:15.449Z,4.70
2019-06-07T05:51:45.122Z,4.40
2019-06-07T05:54:14.725Z,3.93
2019-06-07T05:56:45.375Z,4.00
2019-06-07T05:59:15.563Z,3.63
2019-06-07T06:01:56.570Z,3.80
2019-06-07T06:04:15.685Z,3.77
2019-06-07T06:06:47.109Z,3.77
2019-06-07T06:09:15.440Z,3.63
2019-06-07T06:11:56.554Z,3.37
2019-06-07T06:14:15.337Z,3.30
2019-06-07T06:16:47.428Z,3.23
2019-06-07T06:19:15.801Z,3.40
2019-06-07T06:21:46.394Z,2.83
2019-06-07T06:24:15.523Z,3.13
2019-06-07T06:26:51.223Z,3.40
2019-06-07T06:29:15.344Z,3.30
2019-06-07T06:32:35.844Z,2.97
2019-06-07T06:34:15.491Z,3.17
2019-06-07T06:36:47.281Z,3.33
2019-06-07T06:39:15.902Z,2.90
2019-06-07T06:41:54.425Z,2.80
2019-06-07T06:44:16.482Z,2.70
2019-06-07T06:46:50.198Z,2.83
2019-06-07T06:49:16.390Z,3.23
2019-06-07T06:51:47.824Z,2.83
2019-06-07T06:54:39.029Z,2.50
2019-06-07T06:56:52.032Z,2.90
2019-06-07T06:59:38.137Z,3.00
2019-06-07T07:01:52.451Z,3.10
2019-06-07T07:04:20.355Z,3.03
2019-06-07T07:06:51.271Z,2.80
2019-06-07T07:09:21.551Z,2.73
2019-06-07T07:12:08.860Z,2.97
2019-06-07T07:14:21.341Z,2.60
2019-06-07T07:16:54.493Z,2.60
2019-06-07T07:19:21.142Z,3.12
2019-06-07T07:21:53.123Z,2.80
2019-06-07T07:24:22.354Z,2.60
2019-06-07T07:26:53.922Z,2.47
2019-06-07T07:29:22.538Z,2.80
2019-06-07T07:31:55.781Z,2.37
2019-06-07T07:34:34.680Z,2.80
2019-06-07T07:36:59.407Z,2.37
2019-06-07T07:39:24.940Z,2.20
2019-06-07T07:42:13.772Z,2.67
2019-06-07T07:44:25.021Z,2.53
2019-06-07T07:46:55.904Z,2.30
2019-06-07T07:49:25.112Z,2.80
2019-06-07T07:51:57.083Z,2.62
2019-06-07T07:54:25.242Z,2.62
2019-06-07T07:56:56.157Z,2.83
2019-06-07T07:59:41.336Z,2.60
2019-06-07T08:01:56.232Z,2.42
2019-06-07T08:05:12.174Z,2.97
2019-06-07T08:06:56.298Z,3.15
2019-06-07T08:09:25.347Z,2.67
2019-06-07T08:12:00.013Z,2.65
2019-06-07T08:14:25.104Z,2.98
2019-06-07T08:16:57.273Z,2.98
2019-06-07T08:19:25.134Z,3.33
2019-06-07T08:21:55.703Z,2.87
2019-06-07T08:24:25.302Z,3.05
2019-06-07T08:27:18.223Z,2.92
2019-06-07T08:29:25.038Z,3.10
2019-06-07T08:31:57.611Z,2.72
2019-06-07T08:34:25.158Z,3.05
2019-06-07T08:36:57.463Z,3.08
2019-06-07T08:39:25.076Z,3.05
2019-06-07T08:42:13.833Z,3.05
2019-06-07T08:44:25.784Z,3.17
2019-06-07T08:47:16.048Z,3.20
2019-06-07T08:49:26.123Z,2.87
2019-06-07T08:52:03.051Z,3.12
2019-06-07T08:54:26.962Z,3.22
2019-06-07T08:57:16.893Z,3.00
2019-06-07T08:59:28.102Z,2.80
2019-06-07T09:01:59.678Z,3.42
2019-06-07T09:04:28.666Z,3.30
2019-06-07T09:07:18.128Z,3.00
2019-06-07T09:09:28.870Z,2.47
2019-06-07T09:12:03.215Z,2.80
2019-06-07T09:14:29.356Z,2.70
2019-06-07T09:17:01.325Z,2.75
2019-06-07T09:19:29.134Z,2.60
2019-06-07T09:22:03.340Z,2.87
2019-06-07T09:24:29.361Z,2.80
2019-06-07T09:27:02.426Z,3.02
2019-06-07T09:29:30.182Z,2.52
2019-06-07T09:32:04.393Z,2.70
2019-06-07T09:34:30.342Z,2.87
2019-06-07T09:37:10.927Z,3.27
2019-06-07T09:39:30.580Z,3.10
2019-06-07T09:42:01.599Z,2.87
2019-06-07T09:44:30.470Z,3.10
2019-06-07T09:47:19.478Z,3.25
2019-06-07T09:49:32.991Z,2.98
2019-06-07T09:52:06.758Z,3.10
2019-06-07T09:57:07.538Z,2.42
2019-06-07T09:59:33.787Z,2.10
2019-06-07T10:02:05.595Z,1.92
2019-06-07T10:04:34.140Z,1.90
2019-06-07T10:07:12.318Z,2.00
2019-06-07T10:12:06.436Z,2.30
2019-06-07T10:14:35.544Z,1.70
2019-06-07T10:17:05.034Z,1.70
2019-06-07T10:19:34.923Z,1.90
2019-06-07T10:22:05.733Z,1.67
2019-06-07T10:24:35.346Z,2.00
2019-06-07T10:27:05.894Z,1.90
2019-06-07T10:29:35.373Z,1.95
2019-06-07T10:32:09.081Z,2.10
2019-06-07T10:34:38.534Z,1.70
2019-06-07T10:37:09.828Z,2.10
2019-06-07T10:39:48.066Z,1.80
2019-06-07T10:42:11.399Z,1.80
2019-06-07T10:44:40.734Z,1.57
2019-06-07T10:47:10.106Z,1.90
2019-06-07T10:49:39.600Z,1.80
2019-06-07T10:52:10.367Z,2.10
2019-06-07T10:54:39.854Z,1.62
2019-06-07T10:57:12.062Z,1.55
2019-06-07T10:59:39.961Z,1.60
2019-06-07T11:02:09.755Z,1.98
2019-06-07T11:04:39.291Z,2.15
2019-06-07T11:07:09.966Z,1.90
2019-06-07T11:09:39.114Z,1.57
2019-06-07T11:12:08.442Z,1.70
2019-06-07T11:14:37.622Z,2.27
2019-06-07T11:17:07.416Z,1.95
2019-06-07T11:19:36.946Z,1.72
2019-06-07T11:22:06.130Z,1.82
2019-06-07T11:24:35.123Z,1.80
2019-06-07T11:27:04.294Z,1.75
2019-06-07T11:29:33.331Z,1.87
2019-06-07T11:32:02.760Z,1.70
2019-06-07T11:34:31.974Z,1.70
2019-06-07T11:37:01.385Z,1.62
2019-06-07T11:39:30.694Z,1.50
2019-06-07T11:42:00.708Z,1.90
2019-06-07T11:44:30.144Z,1.80
2019-06-07T11:46:59.202Z,1.65
2019-06-07T11:49:28.242Z,1.40
2019-06-07T11:51:57.256Z,1.67
2019-06-07T11:54:26.634Z,1.80
2019-06-07T11:56:56.018Z,1.98
2019-06-07T11:59:25.444Z,1.80
2019-06-07T12:01:54.820Z,1.70
2019-06-07T12:04:34.329Z,2.37
2019-06-07T12:06:55.103Z,1.98
2019-06-07T12:09:27.944Z,1.90
2019-06-07T12:11:55.678Z,2.17
2019-06-07T12:14:24.706Z,2.42
2019-06-07T12:16:54.157Z,2.20
2019-06-07T12:19:23.316Z,2.40
2019-06-07T12:21:52.346Z,2.37
2019-06-07T12:24:21.387Z,2.50
2019-06-07T12:26:50.897Z,2.03
2019-06-07T12:29:21.230Z,2.50
2019-06-07T12:31:50.350Z,2.50
2019-06-07T12:34:19.538Z,2.50
2019-06-07T12:36:48.960Z,3.00
2019-06-07T12:39:18.112Z,2.37
2019-06-07T12:41:47.102Z,2.53
2019-06-07T12:44:17.032Z,2.50
2019-06-07T12:46:46.324Z,2.40
2019-06-07T12:49:15.554Z,2.60
2019-06-07T12:51:45.318Z,2.23
2019-06-07T12:54:15.471Z,2.50
2019-06-07T12:56:44.623Z,2.17
2019-06-07T12:59:13.952Z,2.43
2019-06-07T13:01:44.157Z,2.10
2019-06-07T13:04:14.364Z,2.23
2019-06-07T13:06:43.802Z,1.80
2019-06-07T13:09:13.448Z,1.90
2019-06-07T13:11:42.510Z,2.30
2019-06-07T13:14:11.697Z,2.07
2019-06-07T13:16:40.735Z,1.83
2019-06-07T13:19:10.174Z,2.10
2019-06-07T13:21:39.518Z,2.20
2019-06-07T13:24:10.000Z,2.00
2019-06-07T13:26:39.608Z,2.33
2019-06-07T13:29:08.632Z,2.17
2019-06-07T13:31:37.734Z,1.80
2019-06-07T13:34:06.792Z,1.90
2019-06-07T13:36:36.376Z,1.60
2019-06-07T13:39:07.885Z,1.47
2019-06-07T13:41:42.951Z,1.90
2019-06-07T13:44:08.023Z,1.87
2019-06-07T13:46:37.204Z,1.70
2019-06-07T13:49:06.775Z,1.90
2019-06-07T13:51:39.202Z,1.60
2019-06-07T13:54:08.193Z,1.60
2019-06-07T13:56:37.270Z,1.30
2019-06-07T13:59:06.690Z,1.50
2019-06-07T14:01:35.708Z,1.50
2019-06-07T14:04:05.088Z,1.50
2019-06-07T14:06:34.050Z,1.60
2019-06-07T14:09:04.991Z,1.40
2019-06-07T14:11:49.572Z,1.40
2019-06-07T14:14:06.372Z,1.67
2019-06-07T14:16:35.419Z,1.57
2019-06-07T14:19:04.435Z,1.47
2019-06-07T14:21:33.814Z,1.47
2019-06-07T14:24:02.840Z,1.47
2019-06-07T14:26:32.594Z,1.23
2019-06-07T14:29:01.754Z,1.60
2019-06-07T14:31:32.124Z,1.60
2019-06-07T14:34:01.373Z,1.50
2019-06-07T14:36:31.089Z,1.75
2019-06-07T14:39:00.859Z,1.13
2019-06-07T14:41:31.699Z,1.30
2019-06-07T14:44:00.648Z,1.00
2019-06-07T14:46:30.255Z,1.40
2019-06-07T14:48:59.317Z,0.90
2019-06-07T14:51:28.435Z,1.10
2019-06-07T14:53:57.911Z,1.20
2019-06-07T14:56:27.120Z,1.10
2019-06-07T14:58:56.122Z,0.90
2019-06-07T15:01:26.249Z,1.00
2019-06-07T15:03:55.485Z,1.10
2019-06-07T15:06:24.832Z,1.13
2019-06-07T15:08:53.903Z,1.00
2019-06-07T15:11:22.917Z,0.80
2019-06-07T15:13:52.298Z,1.00
2019-06-07T15:16:21.350Z,1.00
2019-06-07T15:18:50.474Z,0.93
2019-06-07T15:21:19.498Z,1.00
2019-06-07T15:23:48.904Z,0.90
2019-06-07T15:26:17.956Z,1.20
2019-06-07T15:28:47.298Z,1.20
2019-06-07T15:31:16.318Z,1.10
2019-06-07T15:33:45.710Z,1.10
2019-06-07T15:36:14.862Z,1.10
2019-06-07T15:38:43.979Z,1.20
2019-06-07T15:41:13.064Z,1.23
2019-06-07T15:43:42.158Z,1.10
2019-06-07T15:46:11.228Z,1.13
2019-06-07T15:48:40.584Z,0.90
2019-06-07T15:51:10.096Z,0.90
2019-06-07T15:53:43.181Z,0.93
2019-06-07T15:56:09.960Z,0.98
2019-06-07T15:58:39.487Z,1.20
2019-06-07T16:01:08.642Z,1.02
2019-06-07T16:03:38.032Z,1.00
2019-06-07T16:06:07.595Z,0.90
2019-06-07T16:08:38.547Z,0.83
2019-06-07T16:11:08.097Z,1.03
2019-06-07T16:13:37.194Z,0.80
2019-06-07T16:16:06.718Z,1.17
2019-06-07T16:18:37.557Z,1.00
2019-06-07T16:21:07.116Z,1.27
2019-06-07T16:23:37.765Z,1.10
2019-06-07T16:26:07.290Z,1.00
2019-06-07T16:28:36.345Z,1.20
2019-06-07T16:31:05.446Z,1.07
2019-06-07T16:33:34.684Z,1.20
2019-06-07T16:36:03.806Z,0.93
2019-06-07T16:38:32.805Z,1.07
2019-06-07T16:41:01.891Z,1.10
2019-06-07T16:43:30.978Z,1.03
2019-06-07T16:46:00.320Z,0.97
2019-06-07T16:48:30.107Z,1.20
2019-06-07T16:50:59.559Z,1.00
2019-06-07T16:53:28.626Z,1.20
2019-06-07T16:55:58.162Z,1.20
2019-06-07T16:58:29.266Z,1.20
2019-06-07T17:00:58.782Z,1.30
2019-06-07T17:03:28.222Z,1.30
2019-06-07T17:05:57.492Z,1.20
2019-06-07T17:08:26.834Z,1.10
2019-06-07T17:10:56.820Z,1.30
2019-06-07T17:13:33.616Z,1.30
2019-06-07T17:16:00.469Z,1.20
2019-06-07T17:18:30.369Z,1.20
2019-06-07T17:21:00.511Z,1.00
2019-06-07T17:23:32.986Z,1.20
2019-06-07T17:26:02.189Z,1.00
2019-06-07T17:28:31.689Z,1.00
2019-06-07T17:31:00.963Z,1.10
2019-06-07T17:33:30.585Z,1.10
2019-06-07T17:36:00.872Z,1.10
2019-06-07T17:38:30.500Z,1.07
2019-06-07T17:41:00.145Z,1.10
2019-06-07T17:43:29.818Z,1.40
2019-06-07T17:46:00.055Z,1.27
2019-06-07T17:48:30.149Z,1.30
2019-06-07T17:50:59.885Z,1.10
2019-06-07T17:53:30.578Z,1.40
2019-06-07T17:55:59.911Z,1.30
2019-06-07T17:58:29.421Z,0.90
2019-06-07T18:00:58.747Z,1.10
2019-06-07T18:03:28.238Z,1.50
2019-06-07T18:05:57.636Z,1.30
2019-06-07T18:08:26.765Z,1.30
2019-06-07T18:10:56.503Z,1.10
2019-06-07T18:13:25.936Z,1.07
2019-06-07T18:15:58.943Z,1.17
2019-06-07T18:18:26.448Z,1.20
2019-06-07T18:20:55.767Z,1.20
2019-06-07T18:23:25.585Z,1.40
2019-06-07T18:25:54.885Z,1.60
2019-06-07T18:28:24.887Z,1.10
2019-06-07T18:30:54.965Z,1.13
2019-06-07T18:33:23.995Z,1.10
2019-06-07T18:35:55.289Z,1.10
2019-06-07T18:38:24.749Z,1.37
2019-06-07T18:40:55.262Z,1.07
2019-06-07T18:43:24.511Z,1.13
2019-06-07T18:45:53.635Z,1.43
2019-06-07T18:48:22.661Z,1.10
2019-06-07T18:50:52.618Z,1.20
2019-06-07T18:53:22.338Z,1.23
2019-06-07T18:55:52.224Z,1.10
2019-06-07T18:58:21.348Z,1.10
2019-06-07T19:00:51.447Z,1.13
2019-06-07T19:03:20.544Z,1.20
2019-06-07T19:05:50.078Z,1.30
2019-06-07T19:08:19.207Z,1.20
2019-06-07T19:10:48.787Z,1.37
2019-06-07T19:13:18.252Z,1.20
2019-06-07T19:15:47.661Z,1.20
2019-06-07T19:18:17.466Z,1.30
2019-06-07T19:20:46.450Z,0.93
2019-06-07T19:23:15.518Z,1.47
2019-06-07T19:25:44.550Z,1.20
2019-06-07T19:28:14.903Z,1.17
2019-06-07T19:30:44.075Z,1.27
2019-06-07T19:33:14.153Z,1.03
2019-06-07T19:35:43.887Z,1.07
2019-06-07T19:38:12.933Z,1.17
2019-06-07T19:40:41.978Z,1.20
2019-06-07T19:43:14.337Z,1.20
2019-06-07T19:45:44.417Z,0.97
2019-06-07T19:48:13.434Z,1.03
2019-06-07T19:50:43.401Z,1.30
2019-06-07T19:53:12.488Z,1.30
2019-06-07T19:55:41.595Z,1.20
2019-06-07T19:58:11.093Z,0.87
2019-06-07T20:00:41.383Z,0.93
2019-06-07T20:03:10.424Z,1.10
2019-06-07T20:05:39.584Z,0.80
2019-06-07T20:08:09.019Z,0.97
2019-06-07T20:10:38.439Z,1.17
2019-06-07T20:13:07.445Z,0.80
2019-06-07T20:15:37.124Z,1.07
2019-06-07T20:18:07.726Z,1.00
2019-06-07T20:20:37.059Z,0.87
2019-06-07T20:23:06.659Z,0.90
2019-06-07T20:25:36.072Z,1.00
2019-06-07T20:28:05.771Z,0.90
2019-06-07T20:30:34.824Z,0.97
2019-06-07T20:33:04.037Z,1.10
2019-06-07T20:35:33.467Z,0.90
2019-06-07T20:38:04.006Z,0.90
2019-06-07T20:40:33.656Z,0.97
2019-06-07T20:43:03.550Z,0.77
2019-06-07T20:45:34.301Z,0.80
2019-06-07T20:48:04.202Z,0.87
2019-06-07T20:50:33.545Z,1.10
2019-06-07T20:53:03.173Z,1.00
2019-06-07T20:55:33.002Z,1.00
2019-06-07T20:58:03.775Z,1.10
2019-06-07T21:00:33.183Z,0.80
2019-06-07T21:03:03.201Z,0.80
2019-06-07T21:05:32.496Z,0.90
2019-06-07T21:08:02.383Z,1.07
2019-06-07T21:10:33.238Z,0.60
2019-06-07T21:13:02.664Z,0.90
2019-06-07T21:15:45.593Z,1.10
2019-06-07T21:18:09.912Z,0.77
2019-06-07T21:20:35.051Z,0.90
2019-06-07T21:23:04.750Z,0.80
2019-06-07T21:25:33.802Z,0.93
2019-06-07T21:28:03.134Z,1.03
2019-06-07T21:30:32.210Z,1.10
2019-06-07T21:33:01.399Z,0.80
2019-06-07T21:35:30.943Z,1.10
2019-06-07T21:38:00.017Z,1.00
2019-06-07T21:40:29.060Z,1.13
2019-06-07T21:42:58.074Z,1.43
2019-06-07T21:45:27.425Z,1.20
2019-06-07T21:47:56.575Z,1.23
2019-06-07T21:50:25.627Z,1.43
2019-06-07T21:52:54.713Z,1.20
2019-06-07T21:55:24.009Z,1.63
2019-06-07T21:57:53.065Z,1.40
2019-06-07T22:00:28.723Z,1.30
2019-06-07T22:02:57.863Z,1.30
2019-06-07T22:05:27.185Z,1.10
2019-06-07T22:07:56.216Z,1.40
2019-06-07T22:10:25.225Z,1.37
2019-06-07T22:12:54.855Z,1.23
2019-06-07T22:15:34.098Z,1.50
2019-06-07T22:17:55.000Z,1.47
2019-06-07T22:20:24.378Z,1.57
2019-06-07T22:22:53.458Z,1.77
2019-06-07T22:25:22.536Z,1.40
2019-06-07T22:27:51.960Z,1.60
2019-06-07T22:30:21.515Z,1.60
2019-06-07T22:32:51.085Z,1.60
2019-06-07T22:35:20.103Z,1.70
2019-06-07T22:37:49.234Z,1.27
2019-06-07T22:40:18.698Z,1.43
2019-06-07T22:42:48.130Z,1.90
2019-06-07T22:45:17.161Z,1.70
2019-06-07T22:47:46.259Z,1.63
2019-06-07T22:50:16.494Z,1.70
2019-06-07T22:52:45.853Z,1.87
2019-06-07T22:55:15.918Z,1.80
2019-06-07T22:57:56.607Z,2.00
2019-06-07T23:00:26.851Z,1.80
2019-06-07T23:02:56.240Z,1.70
2019-06-07T23:05:25.382Z,1.70
2019-06-07T23:07:54.374Z,1.40
2019-06-07T23:10:23.727Z,1.83
2019-06-07T23:12:52.779Z,1.13
2019-06-07T23:15:22.303Z,1.40
2019-06-07T23:17:51.684Z,1.63
2019-06-07T23:20:20.694Z,1.70
2019-06-07T23:22:50.096Z,1.40
2019-06-07T23:25:23.832Z,1.27
2019-06-07T23:27:50.251Z,1.63
2019-06-07T23:30:21.689Z,1.20
2019-06-07T23:32:50.618Z,1.60
2019-06-07T23:35:21.120Z,1.23
2019-06-07T23:37:50.476Z,1.40
2019-06-07T23:40:19.585Z,1.37
2019-06-07T23:42:48.892Z,1.30
2019-06-07T23:45:19.508Z,1.20
2019-06-07T23:47:48.658Z,1.23
2019-06-07T23:50:17.764Z,1.07
2019-06-07T23:52:47.405Z,1.20
2019-06-07T23:55:17.935Z,1.20
2019-06-07T23:57:47.065Z,1.63
